createdAt,value
2023-05-04T00:00:56.552Z,6.18
2023-05-04T00:02:18.415Z,6.13
2023-05-04T00:03:41.530Z,5.86
2023-05-04T00:05:05.992Z,5.90
2023-05-04T00:06:28.872Z,5.92
2023-05-04T00:07:52.476Z,5.51
2023-05-04T00:09:16.229Z,5.47
2023-05-04T00:10:38.996Z,5.19
2023-05-04T00:12:02.363Z,5.10
2023-05-04T00:13:24.280Z,5.16
2023-05-04T00:14:51.431Z,5.57
2023-05-04T00:16:13.334Z,5.76
2023-05-04T00:17:36.165Z,5.93
2023-05-04T00:18:58.038Z,6.05
2023-05-04T00:20:21.085Z,6.02
2023-05-04T00:21:42.920Z,6.26
2023-05-04T00:23:05.733Z,6.41
2023-05-04T00:24:28.553Z,6.52
2023-05-04T00:25:51.381Z,6.39
2023-05-04T00:27:13.328Z,6.34
2023-05-04T00:28:36.081Z,5.95
2023-05-04T00:29:59.195Z,6.15
2023-05-04T00:31:22.218Z,5.95
2023-05-04T00:32:44.226Z,5.52
2023-05-04T00:34:07.306Z,5.08
2023-05-04T00:35:31.613Z,5.14
2023-05-04T00:36:54.367Z,5.33
2023-05-04T00:38:16.758Z,5.45
2023-05-04T00:39:39.589Z,5.55
2023-05-04T00:41:02.874Z,5.67
2023-05-04T00:42:24.819Z,5.70
2023-05-04T00:43:48.792Z,5.61
2023-05-04T00:45:13.103Z,5.69
2023-05-04T00:46:37.416Z,5.58
2023-05-04T00:48:00.600Z,5.19
2023-05-04T00:49:22.902Z,4.81
2023-05-04T00:50:46.062Z,4.31
2023-05-04T00:52:10.511Z,4.04
2023-05-04T00:53:33.522Z,4.04
2023-05-04T00:54:55.498Z,4.52
2023-05-04T00:56:18.886Z,4.52
2023-05-04T00:57:40.776Z,4.68
2023-05-04T00:59:03.528Z,4.85
2023-05-04T01:00:27.226Z,4.90
2023-05-04T01:01:49.993Z,5.16
2023-05-04T01:03:12.030Z,5.44
2023-05-04T01:04:35.081Z,5.56
2023-05-04T01:06:08.040Z,5.35
2023-05-04T01:07:39.284Z,5.15
2023-05-04T01:09:09.007Z,5.19
2023-05-04T01:10:39.006Z,5.33
2023-05-04T01:12:07.918Z,5.47
2023-05-04T01:13:35.353Z,5.61
2023-05-04T01:14:58.674Z,5.65
2023-05-04T01:16:22.857Z,5.60
2023-05-04T01:17:44.742Z,5.55
2023-05-04T01:19:07.554Z,5.41
2023-05-04T01:20:30.733Z,4.96
2023-05-04T01:21:53.904Z,5.16
2023-05-04T01:23:16.943Z,5.07
2023-05-04T01:24:40.163Z,5.30
2023-05-04T01:26:08.178Z,5.19
2023-05-04T01:27:36.270Z,5.40
2023-05-04T01:29:09.343Z,5.23
2023-05-04T01:30:36.198Z,5.46
2023-05-04T01:32:00.955Z,5.49
2023-05-04T01:33:23.467Z,5.37
2023-05-04T01:34:47.015Z,5.21
2023-05-04T01:36:09.144Z,5.25
2023-05-04T01:37:33.408Z,5.24
2023-05-04T01:38:57.047Z,5.20
2023-05-04T01:40:19.901Z,5.02
2023-05-04T01:41:42.730Z,4.78
2023-05-04T01:43:04.638Z,4.96
2023-05-04T01:44:27.441Z,4.71
2023-05-04T01:45:50.354Z,4.70
2023-05-04T01:47:12.229Z,5.06
2023-05-04T01:48:35.093Z,5.36
2023-05-04T01:49:57.291Z,5.38
2023-05-04T01:51:20.099Z,5.23
2023-05-04T01:52:43.226Z,5.37
2023-05-04T01:54:06.202Z,5.42
2023-05-04T01:55:28.102Z,5.10
2023-05-04T01:56:50.947Z,4.88
2023-05-04T01:58:12.778Z,4.85
2023-05-04T01:59:35.599Z,4.92
2023-05-04T02:00:59.268Z,5.03
2023-05-04T02:02:22.059Z,4.85
2023-05-04T02:03:44.672Z,5.00
2023-05-04T02:05:08.180Z,5.05
2023-05-04T02:06:30.957Z,5.32
2023-05-04T02:07:54.103Z,5.47
2023-05-04T02:09:16.964Z,5.49
2023-05-04T02:10:39.754Z,5.40
2023-05-04T02:12:01.755Z,5.30
2023-05-04T02:13:24.548Z,5.21
2023-05-04T02:14:46.455Z,4.79
2023-05-04T02:16:09.761Z,4.36
2023-05-04T02:17:31.683Z,4.09
2023-05-04T02:18:54.548Z,3.89
2023-05-04T02:20:16.676Z,3.96
2023-05-04T02:21:40.229Z,4.37
2023-05-04T02:23:03.367Z,4.58
2023-05-04T02:24:26.323Z,4.81
2023-05-04T02:25:48.185Z,4.81
2023-05-04T02:27:11.025Z,5.07
2023-05-04T02:28:33.787Z,5.22
2023-05-04T02:29:58.296Z,5.10
2023-05-04T02:31:21.362Z,4.87
2023-05-04T02:32:43.200Z,4.89
2023-05-04T02:34:06.073Z,4.80
2023-05-04T02:35:29.165Z,5.08
2023-05-04T02:36:51.006Z,4.90
2023-05-04T02:38:15.134Z,4.91
2023-05-04T02:39:36.991Z,4.78
2023-05-04T02:40:59.791Z,4.21
2023-05-04T02:42:22.925Z,3.74
2023-05-04T02:43:45.863Z,3.18
2023-05-04T02:45:08.653Z,3.42
2023-05-04T02:46:33.109Z,3.42
2023-05-04T02:47:55.013Z,3.46
2023-05-04T02:49:17.854Z,3.81
2023-05-04T02:50:39.739Z,4.22
2023-05-04T02:52:02.580Z,4.05
2023-05-04T02:53:25.862Z,4.17
2023-05-04T02:54:49.018Z,4.33
2023-05-04T02:56:12.839Z,4.01
2023-05-04T02:57:34.830Z,3.87
2023-05-04T02:58:57.652Z,3.52
2023-05-04T03:00:20.916Z,3.22
2023-05-04T03:01:43.728Z,3.29
2023-05-04T03:03:07.181Z,3.76
2023-05-04T03:04:30.061Z,4.13
2023-05-04T03:05:51.903Z,4.44
2023-05-04T03:07:14.683Z,4.62
2023-05-04T03:08:38.756Z,4.79
2023-05-04T03:10:02.022Z,4.88
2023-05-04T03:11:23.911Z,4.85
2023-05-04T03:12:46.936Z,4.89
2023-05-04T03:14:08.810Z,4.00
2023-05-04T03:15:31.581Z,4.23
2023-05-04T03:16:54.375Z,4.14
2023-05-04T03:18:17.170Z,4.22
2023-05-04T03:19:39.996Z,4.39
2023-05-04T03:21:02.797Z,3.98
2023-05-04T03:22:25.574Z,3.86
2023-05-04T03:23:48.770Z,4.16
2023-05-04T03:25:11.584Z,4.28
2023-05-04T03:26:34.383Z,4.28
2023-05-04T03:27:56.323Z,4.29
2023-05-04T03:29:19.078Z,4.38
2023-05-04T03:30:41.107Z,4.33
2023-05-04T03:32:04.023Z,4.40
2023-05-04T03:33:25.909Z,4.42
2023-05-04T03:34:48.722Z,4.67
2023-05-04T03:36:11.564Z,4.85
2023-05-04T03:37:33.477Z,4.85
2023-05-04T03:38:57.585Z,4.61
2023-05-04T03:40:22.919Z,4.68
2023-05-04T03:41:45.925Z,4.85
2023-05-04T03:43:07.767Z,4.95
2023-05-04T03:44:30.538Z,5.03
2023-05-04T03:45:52.402Z,4.73
2023-05-04T03:47:15.285Z,4.92
2023-05-04T03:48:37.267Z,4.80
2023-05-04T03:50:00.043Z,4.73
2023-05-04T03:51:22.910Z,4.86
2023-05-04T03:52:45.761Z,4.97
2023-05-04T03:54:09.912Z,4.95
2023-05-04T03:55:32.758Z,4.92
2023-05-04T03:56:54.591Z,4.91
2023-05-04T03:58:17.383Z,4.58
2023-05-04T03:59:40.209Z,4.12
2023-05-04T04:01:03.361Z,3.90
2023-05-04T04:02:26.516Z,3.71
2023-05-04T04:03:49.633Z,3.57
2023-05-04T04:05:11.684Z,3.89
2023-05-04T04:06:34.502Z,4.33
2023-05-04T04:07:56.321Z,4.60
2023-05-04T04:09:20.553Z,4.76
2023-05-04T04:10:43.319Z,4.69
2023-05-04T04:12:06.673Z,4.86
2023-05-04T04:13:28.530Z,4.76
2023-05-04T04:14:51.922Z,4.17
2023-05-04T04:16:14.780Z,4.16
2023-05-04T04:17:37.616Z,4.33
2023-05-04T04:19:01.849Z,4.52
2023-05-04T04:20:23.742Z,4.69
2023-05-04T04:21:46.642Z,4.78
2023-05-04T04:23:08.514Z,4.29
2023-05-04T04:24:33.569Z,3.80
2023-05-04T04:25:56.623Z,3.88
2023-05-04T04:27:18.737Z,4.12
2023-05-04T04:28:41.559Z,4.30
2023-05-04T04:30:05.315Z,4.49
2023-05-04T04:31:28.398Z,4.63
2023-05-04T04:32:50.294Z,4.86
2023-05-04T04:34:15.993Z,5.06
2023-05-04T04:35:39.134Z,5.28
2023-05-04T04:37:02.031Z,5.31
2023-05-04T04:38:24.919Z,5.41
2023-05-04T04:39:49.180Z,5.29
2023-05-04T04:41:12.056Z,5.22
2023-05-04T04:42:35.187Z,5.22
2023-05-04T04:43:58.045Z,5.31
2023-05-04T04:45:20.507Z,4.73
2023-05-04T04:46:44.630Z,5.00
2023-05-04T04:48:07.959Z,5.36
2023-05-04T04:49:30.806Z,5.56
2023-05-04T04:50:53.872Z,5.69
2023-05-04T04:52:15.836Z,5.81
2023-05-04T04:53:38.801Z,5.95
2023-05-04T04:55:04.289Z,5.95
2023-05-04T04:56:27.373Z,5.54
2023-05-04T04:57:50.875Z,5.38
2023-05-04T04:59:13.989Z,5.32
2023-05-04T05:00:36.953Z,5.61
2023-05-04T05:01:59.317Z,5.78
2023-05-04T05:03:22.216Z,5.95
2023-05-04T05:04:44.124Z,5.87
2023-05-04T05:06:07.088Z,5.76
2023-05-04T05:07:29.886Z,5.98
2023-05-04T05:08:53.233Z,6.23
2023-05-04T05:10:17.828Z,6.41
2023-05-04T05:11:40.733Z,6.46
2023-05-04T05:13:03.548Z,6.57
2023-05-04T05:14:27.476Z,6.83
2023-05-04T05:15:50.288Z,6.83
2023-05-04T05:17:13.435Z,6.92
2023-05-04T05:18:36.364Z,6.75
2023-05-04T05:19:59.220Z,6.94
2023-05-04T05:21:22.109Z,7.02
2023-05-04T05:22:44.108Z,6.91
2023-05-04T05:24:07.336Z,6.95
2023-05-04T05:25:31.911Z,6.92
2023-05-04T05:26:54.737Z,7.03
2023-05-04T05:28:17.599Z,7.01
2023-05-04T05:29:39.591Z,7.11
2023-05-04T05:31:02.436Z,7.32
2023-05-04T05:32:24.423Z,7.40
2023-05-04T05:33:47.361Z,7.45
2023-05-04T05:35:10.671Z,7.55
2023-05-04T05:36:33.623Z,7.60
2023-05-04T05:37:57.656Z,7.74
2023-05-04T05:39:20.865Z,7.70
2023-05-04T05:40:45.075Z,7.83
2023-05-04T05:42:07.940Z,7.76
2023-05-04T05:43:31.151Z,7.80
2023-05-04T05:44:53.947Z,7.92
2023-05-04T05:46:16.868Z,8.11
2023-05-04T05:47:39.726Z,8.18
2023-05-04T05:49:02.569Z,8.33
2023-05-04T05:50:25.753Z,8.22
2023-05-04T05:51:48.693Z,8.33
2023-05-04T05:53:11.841Z,8.40
2023-05-04T05:54:36.044Z,8.46
2023-05-04T05:56:02.977Z,8.51
2023-05-04T05:57:26.005Z,8.47
2023-05-04T05:58:48.233Z,8.48
2023-05-04T06:00:12.620Z,8.62
2023-05-04T06:01:35.410Z,8.60
2023-05-04T06:02:58.581Z,8.82
2023-05-04T06:04:21.615Z,8.85
2023-05-04T06:05:44.570Z,8.86
2023-05-04T06:07:07.445Z,8.95
2023-05-04T06:08:31.061Z,9.07
2023-05-04T06:09:53.848Z,8.99
2023-05-04T06:11:17.922Z,9.13
2023-05-04T06:12:40.799Z,8.89
2023-05-04T06:14:03.846Z,9.09
2023-05-04T06:15:26.724Z,9.04
2023-05-04T06:16:49.555Z,8.91
2023-05-04T06:18:11.698Z,9.09
2023-05-04T06:19:35.266Z,9.13
2023-05-04T06:21:01.980Z,9.36
2023-05-04T06:22:24.830Z,9.24
2023-05-04T06:23:47.803Z,9.34
2023-05-04T06:25:11.450Z,9.50
2023-05-04T06:26:35.601Z,9.72
2023-05-04T06:27:58.381Z,9.65
2023-05-04T06:29:21.339Z,9.39
2023-05-04T06:30:44.805Z,8.67
2023-05-04T06:32:07.899Z,8.33
2023-05-04T06:33:30.801Z,8.07
2023-05-04T06:34:54.027Z,8.43
2023-05-04T06:36:16.812Z,8.92
2023-05-04T06:37:39.608Z,9.31
2023-05-04T06:39:02.443Z,9.38
2023-05-04T06:40:27.212Z,9.57
2023-05-04T06:41:54.663Z,9.77
2023-05-04T06:43:17.556Z,9.96
2023-05-04T06:44:40.596Z,9.85
2023-05-04T06:46:03.999Z,9.73
2023-05-04T06:47:26.848Z,10.15
2023-05-04T06:48:50.025Z,10.27
2023-05-04T06:50:13.382Z,10.34
2023-05-04T06:51:37.647Z,10.48
2023-05-04T06:53:04.305Z,10.66
2023-05-04T06:54:27.552Z,10.55
2023-05-04T06:55:50.528Z,10.80
2023-05-04T06:57:15.024Z,10.74
2023-05-04T06:58:37.820Z,10.56
2023-05-04T07:00:00.596Z,10.38
2023-05-04T07:01:23.577Z,10.38
2023-05-04T07:02:47.018Z,10.89
2023-05-04T07:04:10.014Z,11.21
2023-05-04T07:05:35.466Z,11.51
2023-05-04T07:06:58.234Z,11.58
2023-05-04T07:08:21.070Z,11.48
2023-05-04T07:09:43.906Z,11.39
2023-05-04T07:11:06.876Z,11.41
2023-05-04T07:12:31.220Z,11.63
2023-05-04T07:13:54.063Z,11.85
2023-05-04T07:15:16.915Z,11.84
2023-05-04T07:16:39.316Z,11.49
2023-05-04T07:18:02.480Z,11.79
2023-05-04T07:19:25.347Z,12.02
2023-05-04T07:20:48.142Z,12.27
2023-05-04T07:22:11.055Z,12.49
2023-05-04T07:23:33.899Z,12.50
2023-05-04T07:24:58.236Z,12.59
2023-05-04T07:26:21.264Z,12.39
2023-05-04T07:27:45.449Z,12.30
2023-05-04T07:29:08.277Z,12.06
2023-05-04T07:30:31.357Z,12.36
2023-05-04T07:31:54.165Z,12.46
2023-05-04T07:33:17.126Z,12.41
2023-05-04T07:34:45.760Z,12.59
2023-05-04T07:36:10.126Z,12.38
2023-05-04T07:37:33.297Z,12.43
2023-05-04T07:38:56.403Z,12.70
2023-05-04T07:40:19.376Z,12.20
2023-05-04T07:41:42.328Z,12.22
2023-05-04T07:43:07.550Z,11.77
2023-05-04T07:44:31.285Z,11.99
2023-05-04T07:45:54.720Z,12.42
2023-05-04T07:47:17.674Z,12.60
2023-05-04T07:48:40.718Z,12.41
2023-05-04T07:50:04.577Z,12.53
2023-05-04T07:51:27.619Z,12.03
2023-05-04T07:52:50.610Z,12.42
2023-05-04T07:54:13.498Z,12.84
2023-05-04T07:55:36.816Z,12.97
2023-05-04T07:57:03.263Z,12.31
2023-05-04T07:58:27.445Z,12.04
2023-05-04T07:59:50.294Z,12.29
2023-05-04T08:01:13.078Z,12.35
2023-05-04T08:02:36.054Z,12.71
2023-05-04T08:03:59.014Z,12.63
2023-05-04T08:05:22.093Z,12.83
2023-05-04T08:06:45.441Z,12.52
2023-05-04T08:08:09.143Z,12.45
2023-05-04T08:09:31.992Z,12.54
2023-05-04T08:10:57.708Z,12.71
2023-05-04T08:12:26.904Z,13.05
2023-05-04T08:13:51.714Z,13.47
2023-05-04T08:15:14.993Z,13.87
2023-05-04T08:16:39.736Z,14.04
2023-05-04T08:18:02.844Z,14.03
2023-05-04T08:19:25.818Z,13.96
2023-05-04T08:20:48.884Z,13.91
2023-05-04T08:22:12.029Z,13.65
2023-05-04T08:23:35.054Z,13.83
2023-05-04T08:24:58.081Z,13.78
2023-05-04T08:26:21.255Z,13.88
2023-05-04T08:27:44.352Z,13.92
2023-05-04T08:29:10.559Z,13.80
2023-05-04T08:30:34.069Z,13.99
2023-05-04T08:31:57.715Z,14.20
2023-05-04T08:33:20.738Z,14.36
2023-05-04T08:34:43.536Z,13.76
2023-05-04T08:36:08.428Z,13.98
2023-05-04T08:37:31.287Z,13.97
2023-05-04T08:38:54.198Z,13.88
2023-05-04T08:40:17.341Z,13.60
2023-05-04T08:41:40.711Z,13.61
2023-05-04T08:43:04.137Z,13.87
2023-05-04T08:44:30.599Z,14.34
2023-05-04T08:45:54.038Z,14.70
2023-05-04T08:47:17.084Z,14.80
2023-05-04T08:48:39.975Z,15.00
2023-05-04T08:50:02.984Z,15.16
2023-05-04T08:51:27.191Z,15.41
2023-05-04T08:52:50.960Z,15.58
2023-05-04T08:54:13.891Z,15.36
2023-05-04T08:55:37.968Z,15.13
2023-05-04T08:57:02.221Z,15.24
2023-05-04T08:58:26.366Z,15.33
2023-05-04T08:59:53.276Z,15.62
2023-05-04T09:01:17.456Z,15.90
2023-05-04T09:02:40.717Z,16.24
2023-05-04T09:04:04.686Z,16.41
2023-05-04T09:05:27.946Z,16.64
2023-05-04T09:06:51.848Z,16.27
2023-05-04T09:08:16.201Z,15.91
2023-05-04T09:09:39.333Z,15.91
2023-05-04T09:11:02.199Z,16.12
2023-05-04T09:12:27.637Z,16.32
2023-05-04T09:13:50.514Z,16.33
2023-05-04T09:15:18.856Z,16.40
2023-05-04T09:16:41.729Z,16.33
2023-05-04T09:18:06.276Z,16.33
2023-05-04T09:19:33.476Z,16.36
2023-05-04T09:20:56.519Z,16.53
2023-05-04T09:22:20.036Z,16.46
2023-05-04T09:23:47.600Z,16.43
2023-05-04T09:25:12.196Z,16.55
2023-05-04T09:26:35.037Z,16.64
2023-05-04T09:27:58.299Z,16.68
2023-05-04T09:29:22.382Z,16.78
2023-05-04T09:30:48.348Z,16.23
2023-05-04T09:32:13.370Z,16.23
2023-05-04T09:33:37.111Z,15.98
2023-05-04T09:34:59.919Z,15.69
2023-05-04T09:36:25.034Z,16.02
2023-05-04T09:37:48.149Z,16.13
2023-05-04T09:39:11.999Z,16.06
2023-05-04T09:40:36.686Z,16.09
2023-05-04T09:41:59.481Z,16.16
2023-05-04T09:43:22.416Z,16.51
2023-05-04T09:44:45.309Z,16.52
2023-05-04T09:46:17.242Z,16.15
2023-05-04T09:47:41.853Z,16.25
2023-05-04T09:49:04.764Z,16.15
2023-05-04T09:50:29.258Z,16.54
2023-05-04T09:51:52.453Z,16.81
2023-05-04T09:53:16.252Z,16.72
2023-05-04T09:54:43.506Z,17.19
2023-05-04T09:56:11.307Z,17.47
2023-05-04T09:57:35.429Z,17.51
2023-05-04T09:58:59.543Z,17.57
2023-05-04T10:00:22.347Z,17.05
2023-05-04T10:01:47.266Z,17.18
2023-05-04T10:03:10.669Z,16.96
2023-05-04T10:04:34.700Z,16.53
2023-05-04T10:05:59.345Z,16.83
2023-05-04T10:07:21.742Z,17.23
2023-05-04T10:08:44.685Z,17.71
2023-05-04T10:10:09.513Z,18.25
2023-05-04T10:11:33.710Z,18.12
2023-05-04T10:12:56.926Z,18.20
2023-05-04T10:14:19.872Z,18.13
2023-05-04T10:15:53.224Z,18.31
2023-05-04T10:17:32.837Z,18.57
2023-05-04T10:19:19.319Z,18.97
2023-05-04T10:21:00.154Z,19.51
2023-05-04T10:22:40.813Z,20.13
2023-05-04T10:24:24.622Z,21.19
2023-05-04T10:26:13.292Z,21.53
2023-05-04T10:27:47.432Z,21.85
2023-05-04T10:29:19.693Z,21.75
2023-05-04T10:30:43.765Z,21.39
2023-05-04T10:32:07.953Z,20.90
2023-05-04T10:33:40.695Z,19.20
2023-05-04T10:35:08.233Z,18.47
2023-05-04T10:36:37.689Z,19.86
2023-05-04T10:38:00.756Z,21.49
2023-05-04T10:39:26.053Z,20.10
2023-05-04T10:40:51.022Z,21.09
2023-05-04T10:42:14.851Z,22.49
2023-05-04T10:43:37.728Z,22.29
2023-05-04T10:45:00.541Z,22.67
2023-05-04T10:46:24.698Z,20.82
2023-05-04T10:47:47.489Z,21.83
2023-05-04T10:49:17.748Z,22.52
2023-05-04T10:50:44.858Z,22.03
2023-05-04T10:52:09.722Z,20.64
2023-05-04T10:53:33.947Z,20.68
2023-05-04T10:55:01.320Z,21.15
2023-05-04T10:56:25.352Z,23.39
2023-05-04T10:57:50.455Z,22.61
2023-05-04T10:59:14.850Z,22.32
2023-05-04T11:00:39.054Z,22.88
2023-05-04T11:02:02.725Z,23.21
2023-05-04T11:03:25.931Z,23.36
2023-05-04T11:05:00.484Z,23.48
2023-05-04T11:06:24.829Z,23.56
2023-05-04T11:07:53.036Z,22.97
2023-05-04T11:09:16.158Z,24.35
2023-05-04T11:10:39.249Z,25.27
2023-05-04T11:12:02.375Z,25.93
2023-05-04T11:13:25.830Z,25.14
2023-05-04T11:14:48.698Z,24.91
2023-05-04T11:16:13.097Z,24.66
2023-05-04T11:17:45.506Z,26.07
2023-05-04T11:19:09.527Z,26.18
2023-05-04T11:20:33.733Z,26.85
2023-05-04T11:21:56.681Z,27.50
2023-05-04T11:23:19.568Z,28.76
2023-05-04T11:24:44.032Z,27.23
2023-05-04T11:26:09.399Z,23.33
2023-05-04T11:27:32.772Z,21.02
2023-05-04T11:28:55.601Z,20.34
2023-05-04T11:30:18.430Z,21.02
2023-05-04T11:31:41.532Z,20.09
2023-05-04T11:33:11.830Z,21.24
2023-05-04T11:34:34.653Z,21.59
2023-05-04T11:36:02.635Z,21.43
2023-05-04T11:37:27.135Z,21.15
2023-05-04T11:38:50.121Z,20.71
2023-05-04T11:40:14.293Z,21.77
2023-05-04T11:41:37.695Z,22.73
2023-05-04T11:43:01.315Z,22.42
2023-05-04T11:44:24.313Z,21.47
2023-05-04T11:45:49.410Z,22.02
2023-05-04T11:47:12.950Z,22.65
2023-05-04T11:48:36.850Z,22.60
2023-05-04T11:49:59.799Z,23.62
2023-05-04T11:51:25.132Z,23.84
2023-05-04T11:52:48.451Z,24.95
2023-05-04T11:54:20.661Z,25.50
2023-05-04T11:55:43.586Z,25.68
2023-05-04T11:57:06.391Z,24.80
2023-05-04T11:58:29.639Z,25.72
2023-05-04T11:59:52.599Z,26.61
2023-05-04T12:01:15.997Z,26.33
2023-05-04T12:02:39.318Z,26.81
2023-05-04T12:04:03.383Z,24.44
2023-05-04T12:05:26.414Z,22.42
2023-05-04T12:06:50.635Z,21.85
2023-05-04T12:08:24.012Z,22.39
2023-05-04T12:09:47.989Z,22.54
2023-05-04T12:11:14.053Z,23.42
2023-05-04T12:12:37.277Z,23.66
2023-05-04T12:14:04.404Z,22.22
2023-05-04T12:15:32.953Z,23.08
2023-05-04T12:16:57.611Z,23.79
2023-05-04T12:18:29.406Z,21.52
2023-05-04T12:19:54.078Z,21.71
2023-05-04T12:21:18.939Z,22.74
2023-05-04T12:22:43.134Z,22.46
2023-05-04T12:24:07.020Z,21.77
2023-05-04T12:25:34.531Z,21.71
2023-05-04T12:27:02.499Z,22.47
2023-05-04T12:28:26.890Z,22.04
2023-05-04T12:29:50.013Z,21.37
2023-05-04T12:31:13.129Z,22.13
2023-05-04T12:32:35.976Z,22.08
2023-05-04T12:33:58.871Z,22.68
2023-05-04T12:35:21.730Z,22.44
2023-05-04T12:36:44.639Z,21.21
2023-05-04T12:38:08.807Z,20.61
2023-05-04T12:39:32.583Z,21.43
2023-05-04T12:40:56.318Z,21.72
2023-05-04T12:42:21.362Z,22.04
2023-05-04T12:43:44.201Z,22.41
2023-05-04T12:45:08.294Z,22.70
2023-05-04T12:46:31.684Z,22.36
2023-05-04T12:47:54.483Z,22.24
2023-05-04T12:49:17.753Z,23.03
2023-05-04T12:50:40.779Z,23.10
2023-05-04T12:52:03.676Z,22.26
2023-05-04T12:53:29.996Z,22.42
2023-05-04T12:54:52.844Z,21.76
2023-05-04T12:56:15.642Z,20.32
2023-05-04T12:57:39.560Z,19.30
2023-05-04T12:59:02.456Z,19.49
2023-05-04T13:00:25.291Z,19.47
2023-05-04T13:01:48.133Z,20.87
2023-05-04T13:03:12.980Z,22.04
2023-05-04T13:04:36.308Z,22.63
2023-05-04T13:05:59.169Z,22.91
2023-05-04T13:07:21.932Z,23.54
2023-05-04T13:08:47.234Z,22.92
2023-05-04T13:10:11.175Z,22.72
2023-05-04T13:11:34.002Z,22.10
2023-05-04T13:12:56.883Z,22.44
2023-05-04T13:14:19.717Z,22.31
2023-05-04T13:15:42.982Z,20.67
2023-05-04T13:17:05.801Z,21.28
2023-05-04T13:18:28.840Z,22.05
2023-05-04T13:19:51.654Z,22.53
2023-05-04T13:21:14.671Z,23.30
2023-05-04T13:22:37.511Z,23.14
2023-05-04T13:24:01.672Z,23.27
2023-05-04T13:25:24.597Z,23.97
2023-05-04T13:26:47.475Z,23.04
2023-05-04T13:28:10.387Z,22.45
2023-05-04T13:29:33.187Z,21.49
2023-05-04T13:30:56.341Z,21.03
2023-05-04T13:32:19.206Z,21.11
2023-05-04T13:33:42.062Z,21.22
2023-05-04T13:35:05.452Z,21.94
2023-05-04T13:36:28.488Z,22.62
2023-05-04T13:37:51.885Z,22.53
2023-05-04T13:39:16.447Z,22.54
2023-05-04T13:40:39.519Z,22.32
2023-05-04T13:42:02.292Z,22.39
2023-05-04T13:43:25.366Z,22.95
2023-05-04T13:44:48.653Z,22.69
2023-05-04T13:46:11.607Z,22.52
2023-05-04T13:47:36.899Z,22.54
2023-05-04T13:48:59.750Z,21.96
2023-05-04T13:50:22.615Z,22.32
2023-05-04T13:51:45.554Z,22.01
2023-05-04T13:53:09.230Z,21.66
2023-05-04T13:54:33.702Z,21.23
2023-05-04T13:55:56.612Z,20.47
2023-05-04T13:57:19.514Z,20.22
2023-05-04T13:58:42.328Z,20.43
2023-05-04T14:00:08.595Z,20.67
2023-05-04T14:01:31.718Z,20.16
2023-05-04T14:02:54.680Z,20.88
2023-05-04T14:04:17.889Z,21.17
2023-05-04T14:05:40.751Z,21.19
2023-05-04T14:07:03.890Z,19.98
2023-05-04T14:08:26.828Z,20.21
2023-05-04T14:09:51.286Z,20.76
2023-05-04T14:11:14.480Z,20.66
2023-05-04T14:12:37.429Z,20.41
2023-05-04T14:14:00.281Z,21.01
2023-05-04T14:15:23.440Z,21.41
2023-05-04T14:16:47.881Z,21.41
2023-05-04T14:18:10.825Z,21.00
2023-05-04T14:19:33.705Z,20.68
2023-05-04T14:20:56.889Z,20.08
2023-05-04T14:22:19.797Z,20.39
2023-05-04T14:23:42.690Z,20.78
2023-05-04T14:25:08.655Z,21.50
2023-05-04T14:26:32.408Z,21.38
2023-05-04T14:27:55.229Z,21.33
2023-05-04T14:29:17.974Z,21.70
2023-05-04T14:30:40.756Z,21.55
2023-05-04T14:32:03.689Z,20.77
2023-05-04T14:33:26.780Z,20.74
2023-05-04T14:34:50.693Z,21.58
2023-05-04T14:36:13.956Z,22.27
2023-05-04T14:37:37.827Z,22.32
2023-05-04T14:39:02.925Z,21.60
2023-05-04T14:40:27.258Z,21.81
2023-05-04T14:41:49.128Z,21.46
2023-05-04T14:43:11.936Z,20.90
2023-05-04T14:44:34.764Z,20.84
2023-05-04T14:45:59.632Z,21.30
2023-05-04T14:47:22.652Z,21.95
2023-05-04T14:48:45.389Z,22.50
2023-05-04T14:50:09.465Z,23.18
2023-05-04T14:51:33.765Z,22.53
2023-05-04T14:52:56.617Z,22.77
2023-05-04T14:54:19.575Z,22.54
2023-05-04T14:55:43.715Z,22.46
2023-05-04T14:57:08.948Z,22.40
2023-05-04T14:58:31.832Z,22.24
2023-05-04T14:59:54.908Z,22.10
2023-05-04T15:01:18.413Z,22.39
2023-05-04T15:02:41.502Z,22.34
2023-05-04T15:04:04.417Z,22.52
2023-05-04T15:05:27.277Z,22.60
2023-05-04T15:06:50.053Z,22.36
2023-05-04T15:08:12.917Z,22.20
2023-05-04T15:09:35.926Z,21.04
2023-05-04T15:11:00.163Z,20.99
2023-05-04T15:12:23.650Z,21.04
2023-05-04T15:13:46.516Z,21.43
2023-05-04T15:15:10.312Z,21.73
2023-05-04T15:16:33.527Z,21.25
2023-05-04T15:17:56.681Z,20.93
2023-05-04T15:19:19.470Z,21.33
2023-05-04T15:20:42.277Z,21.02
2023-05-04T15:22:05.258Z,20.71
2023-05-04T15:23:28.125Z,20.89
2023-05-04T15:24:51.646Z,20.59
2023-05-04T15:26:28.955Z,20.41
2023-05-04T15:27:51.762Z,20.68
2023-05-04T15:29:14.684Z,20.39
2023-05-04T15:30:37.992Z,20.42
2023-05-04T15:32:00.958Z,20.07
2023-05-04T15:33:23.828Z,19.77
2023-05-04T15:35:01.128Z,19.86
2023-05-04T15:36:28.194Z,20.28
2023-05-04T15:37:51.058Z,20.59
2023-05-04T15:39:13.850Z,20.88
2023-05-04T15:40:36.988Z,20.72
2023-05-04T15:42:01.357Z,20.48
2023-05-04T15:43:24.199Z,20.53
2023-05-04T15:44:46.969Z,20.84
2023-05-04T15:46:09.928Z,21.23
2023-05-04T15:47:33.058Z,21.35
2023-05-04T15:48:56.112Z,21.50
2023-05-04T15:50:19.263Z,21.62
2023-05-04T15:51:42.206Z,21.86
2023-05-04T15:53:05.021Z,21.12
2023-05-04T15:54:28.488Z,21.42
2023-05-04T15:55:51.778Z,21.57
2023-05-04T15:57:15.984Z,21.74
2023-05-04T15:58:38.768Z,21.55
2023-05-04T16:00:02.559Z,21.68
2023-05-04T16:01:25.472Z,21.26
2023-05-04T16:02:48.500Z,21.06
2023-05-04T16:04:11.606Z,20.79
2023-05-04T16:05:34.788Z,20.95
2023-05-04T16:06:57.995Z,20.85
2023-05-04T16:08:21.031Z,21.32
2023-05-04T16:09:43.911Z,21.61
2023-05-04T16:11:07.376Z,20.93
2023-05-04T16:12:31.603Z,20.80
2023-05-04T16:13:54.456Z,20.91
2023-05-04T16:15:17.787Z,20.81
2023-05-04T16:16:41.387Z,20.53
2023-05-04T16:18:04.533Z,20.17
2023-05-04T16:19:27.472Z,20.38
2023-05-04T16:20:50.441Z,20.23
2023-05-04T16:22:13.272Z,20.23
2023-05-04T16:23:36.321Z,19.90
2023-05-04T16:24:59.298Z,19.95
2023-05-04T16:26:22.239Z,19.78
2023-05-04T16:27:46.362Z,19.67
2023-05-04T16:29:09.207Z,19.76
2023-05-04T16:30:32.888Z,19.31
2023-05-04T16:31:56.328Z,19.20
2023-05-04T16:33:20.380Z,19.44
2023-05-04T16:34:43.165Z,19.43
2023-05-04T16:36:06.890Z,19.46
2023-05-04T16:37:29.689Z,19.41
2023-05-04T16:38:52.476Z,19.18
2023-05-04T16:40:16.529Z,19.27
2023-05-04T16:42:57.692Z,19.76
2023-05-04T16:44:19.642Z,19.56
2023-05-04T16:45:42.609Z,19.50
2023-05-04T16:47:06.934Z,19.58
2023-05-04T16:48:29.729Z,19.79
2023-05-04T16:49:52.468Z,19.89
2023-05-04T16:51:15.330Z,19.93
2023-05-04T16:52:38.220Z,20.19
2023-05-04T16:54:01.139Z,20.14
2023-05-04T16:55:23.292Z,20.25
2023-05-04T16:56:46.185Z,20.11
2023-05-04T16:58:10.352Z,20.01
2023-05-04T16:59:33.319Z,20.31
2023-05-04T17:00:55.539Z,19.76
2023-05-04T17:02:18.311Z,19.40
2023-05-04T17:03:41.372Z,19.27
2023-05-04T17:05:06.553Z,19.10
2023-05-04T17:06:29.524Z,18.95
2023-05-04T17:07:52.316Z,18.98
2023-05-04T17:09:14.124Z,19.02
2023-05-04T17:10:36.889Z,19.19
2023-05-04T17:11:59.757Z,18.98
2023-05-04T17:13:23.928Z,19.05
2023-05-04T17:14:46.094Z,19.39
2023-05-04T17:16:09.094Z,19.20
2023-05-04T17:17:31.230Z,18.92
2023-05-04T17:18:54.076Z,18.98
2023-05-04T17:20:16.820Z,19.06
2023-05-04T17:21:38.747Z,18.97
2023-05-04T17:23:01.686Z,19.17
2023-05-04T17:24:24.524Z,19.12
2023-05-04T17:25:46.521Z,18.80
2023-05-04T17:27:09.314Z,18.86
2023-05-04T17:28:33.425Z,18.75
2023-05-04T17:29:56.176Z,18.84
2023-05-04T17:31:19.104Z,18.91
2023-05-04T17:32:41.107Z,19.05
2023-05-04T17:34:03.924Z,19.19
2023-05-04T17:35:26.948Z,18.74
2023-05-04T17:36:49.703Z,18.37
2023-05-04T17:38:12.493Z,18.46
2023-05-04T17:39:35.351Z,18.33
2023-05-04T17:40:58.163Z,18.31
2023-05-04T17:42:20.971Z,18.21
2023-05-04T17:43:45.648Z,18.13
2023-05-04T17:45:08.309Z,18.33
2023-05-04T17:46:31.139Z,18.40
2023-05-04T17:47:53.136Z,18.13
2023-05-04T17:49:19.093Z,17.85
2023-05-04T17:50:41.883Z,18.06
2023-05-04T17:52:05.025Z,18.18
2023-05-04T17:53:29.397Z,17.94
2023-05-04T17:54:53.683Z,17.91
2023-05-04T17:56:16.441Z,18.29
2023-05-04T17:57:38.280Z,18.64
2023-05-04T17:59:02.363Z,18.82
2023-05-04T18:00:25.530Z,18.44
2023-05-04T18:01:48.788Z,18.29
2023-05-04T18:03:11.711Z,18.47
2023-05-04T18:04:35.481Z,17.95
2023-05-04T18:05:58.280Z,18.14
2023-05-04T18:07:21.055Z,18.47
2023-05-04T18:08:43.905Z,18.76
2023-05-04T18:10:06.722Z,18.45
2023-05-04T18:11:29.673Z,18.76
2023-05-04T18:12:51.634Z,19.00
2023-05-04T18:14:15.928Z,19.12